Coffey, Missouri
Current Conditions -  °F | °C
As of 5:53 AM on Sunday 23 Nov 2014 (Local Time) from KLWD Reporting Station
Haze Haze  
Wind Chill: 50°   Ceiling: 200
Heat Index: 50°   Visibility: 3mi
Dew Point: 50°   Wind: 8mph
Humidity: 100%   Direction: 170°S
Pressure: 29.55"   Gusts: NA
Location:  40.11°N, 94.01°W
Report Text: KLWD 231153Z AUTO 17007KT 3SM BR OVC002 10/10 A2955 RMK AO2 SLP009 70001 T01000100 10117 20100 56019
Loading
Personal Weather Stations






























Interactive Weather Map New forecast layout! Learn more

10-Day Weather Forecast

Advertisements
Track Severe Weather on mobile